Time;durP1;ratioP1;P1;durP2;ratioP2;P2;SDS_P1;SDS_P2;PMS_P1;PMS_P2;Temp;Humidity;BMP_temperature;BMP_pressure;BME280_temperature;BME280_humidity;BME280_pressure;Samples;Min_cycle;Max_cycle;Signal;HPM_P1;HPM_P2
2022/11/05 00:09:29;;;;;;;3.33;2.10;;;10.30;99.90;;;;;;6141261;29;20295;-68
2022/11/05 00:19:18;;;;;;;4.47;1.95;;;10.30;99.90;;;;;;6142131;29;20275;-67
2022/11/05 00:25:55;;;;;;;4.93;2.00;;;10.30;99.90;;;;;;6125488;29;20275;-67
2022/11/05 00:29:00;;;;;;;3.35;2.30;;;10.30;99.90;;;;;;6142447;29;20272;-67
2022/11/05 00:32:05;;;;;;;4.95;2.30;;;10.30;99.90;;;;;;6124984;29;20291;-67
2022/11/05 00:35:10;;;;;;;6.57;3.53;;;10.20;99.90;;;;;;6141967;29;20275;-67
2022/11/05 00:38:16;;;;;;;2.55;2.35;;;10.20;99.90;;;;;;6141541;29;20287;-67
2022/11/05 00:41:21;;;;;;;2.55;2.40;;;10.20;99.90;;;;;;6141980;29;20431;-67
2022/11/05 00:51:14;;;;;;;2.65;2.55;;;10.20;99.90;;;;;;6141164;29;20299;-67
2022/11/05 00:54:21;;;;;;;2.38;2.28;;;10.20;99.90;;;;;;6141630;29;20267;-67
2022/11/05 00:57:26;;;;;;;8.20;2.92;;;10.20;99.90;;;;;;6141142;29;20271;-67
2022/11/05 01:00:32;;;;;;;2.72;2.63;;;10.30;99.90;;;;;;6124294;29;20453;-67
2022/11/05 01:03:39;;;;;;;4.22;3.03;;;10.30;99.90;;;;;;6141739;29;20271;-67
2022/11/05 01:06:44;;;;;;;4.05;3.53;;;10.30;99.90;;;;;;6140904;29;20299;-68
2022/11/05 01:09:50;;;;;;;3.28;3.08;;;10.30;99.90;;;;;;6141303;29;20480;-67
2022/11/05 01:12:56;;;;;;;3.60;3.40;;;10.40;99.90;;;;;;6140912;29;20287;-67
2022/11/05 01:16:08;;;;;;;3.42;3.30;;;10.30;99.90;;;;;;6164515;29;20278;-66
2022/11/05 01:19:13;;;;;;;4.03;3.40;;;10.30;99.90;;;;;;6164617;28;20271;-66
2022/11/05 01:22:18;;;;;;;5.75;3.40;;;10.30;99.90;;;;;;6164175;29;20270;-68
2022/11/05 01:25:24;;;;;;;3.65;3.40;;;10.40;99.90;;;;;;6164788;29;20270;-67
2022/11/05 01:28:29;;;;;;;3.63;3.42;;;10.30;99.90;;;;;;6164366;29;20294;-67
2022/11/05 01:31:34;;;;;;;3.70;3.38;;;10.30;99.90;;;;;;6164518;29;20286;-66
2022/11/05 01:34:39;;;;;;;4.13;3.13;;;10.30;99.90;;;;;;6164604;29;20270;-67
2022/11/05 01:37:44;;;;;;;5.57;3.42;;;10.30;99.90;;;;;;6164029;29;20275;-67
2022/11/05 01:40:51;;;;;;;4.47;3.13;;;10.30;99.90;;;;;;6164676;29;20270;-66
2022/11/05 01:43:59;;;;;;;4.95;2.83;;;10.30;99.90;;;;;;6163829;29;20275;-66
2022/11/05 01:47:03;;;;;;;3.03;2.83;;;10.30;99.90;;;;;;6164260;29;20279;-67
2022/11/05 01:50:23;;;;;;;2.83;2.72;;;10.30;99.90;;;;;;6164103;29;20266;-67
2022/11/05 01:53:33;;;;;;;3.60;3.30;;;10.20;99.90;;;;;;6164443;29;20274;-68
2022/11/05 01:56:42;;;;;;;3.22;2.90;;;10.30;99.90;;;;;;6164245;29;20274;-67
2022/11/05 01:59:50;;;;;;;2.92;2.72;;;10.30;99.90;;;;;;6163895;29;20271;-67
2022/11/05 02:02:55;;;;;;;7.47;2.83;;;10.30;99.90;;;;;;6147022;29;20274;-67
2022/11/05 02:06:01;;;;;;;4.07;3.13;;;10.30;99.90;;;;;;6163730;29;20298;-66
2022/11/05 02:09:09;;;;;;;5.25;2.78;;;10.30;99.90;;;;;;6163985;29;20270;-67
2022/11/05 02:12:16;;;;;;;2.95;2.75;;;10.30;99.90;;;;;;6163753;29;20290;-67
2022/11/05 02:15:30;;;;;;;3.50;3.30;;;10.20;99.90;;;;;;6144692;29;20263;-67
2022/11/05 02:18:51;;;;;;;3.70;2.97;;;10.30;99.90;;;;;;6140232;29;20267;-67
2022/11/05 02:22:30;;;;;;;4.10;3.08;;;10.30;99.90;;;;;;6140043;29;20279;-66
2022/11/05 02:25:58;;;;;;;4.00;3.00;;;10.30;99.90;;;;;;6138472;29;20464;-66
2022/11/05 02:30:06;;;;;;;5.57;3.38;;;10.30;99.90;;;;;;6139946;29;20287;-67
2022/11/05 02:33:36;;;;;;;3.95;3.30;;;10.30;99.90;;;;;;6129047;29;20605;-67
2022/11/05 02:36:46;;;;;;;3.10;3.00;;;10.30;99.90;;;;;;6144649;29;20271;-67
2022/11/05 02:40:00;;;;;;;3.20;3.00;;;10.30;99.90;;;;;;6144758;29;20267;-67
2022/11/05 02:43:15;;;;;;;5.05;2.80;;;10.20;99.90;;;;;;6144619;29;20280;-66
2022/11/05 02:46:29;;;;;;;5.43;3.10;;;10.20;99.90;;;;;;6144532;29;20276;-66
2022/11/05 02:49:43;;;;;;;3.17;2.90;;;10.20;99.90;;;;;;6144424;29;20276;-67
2022/11/05 02:53:03;;;;;;;4.85;3.00;;;10.20;99.90;;;;;;6144648;29;20299;-67
2022/11/05 02:56:13;;;;;;;3.13;2.92;;;10.20;99.90;;;;;;6144476;29;20450;-66
2022/11/05 02:59:17;;;;;;;2.83;2.67;;;10.20;99.90;;;;;;6144184;29;20276;-66
2022/11/05 03:02:22;;;;;;;2.72;2.63;;;10.20;99.90;;;;;;6144219;29;20275;-66
2022/11/05 03:05:37;;;;;;;4.10;3.20;;;10.10;99.90;;;;;;6143820;29;20299;-67
2022/11/05 03:09:01;;;;;;;2.90;2.80;;;10.10;99.90;;;;;;6144087;29;20272;-67
2022/11/05 03:12:20;;;;;;;2.88;2.78;;;10.10;99.90;;;;;;6143854;29;20579;-67
2022/11/05 03:15:43;;;;;;;4.15;3.10;;;10.10;99.90;;;;;;6163853;29;20268;-67
2022/11/05 03:18:55;;;;;;;4.50;3.33;;;10.10;99.90;;;;;;6167513;29;20325;-67
2022/11/05 03:22:05;;;;;;;2.95;2.75;;;10.10;99.90;;;;;;6167457;29;20271;-67
2022/11/05 03:25:16;;;;;;;3.60;3.30;;;10.10;99.90;;;;;;6167659;29;20578;-66
2022/11/05 03:28:24;;;;;;;2.92;2.90;;;10.10;99.90;;;;;;6167094;29;20262;-66
2022/11/05 03:31:30;;;;;;;3.13;2.78;;;10.20;99.90;;;;;;6167142;29;20578;-68
2022/11/05 03:34:40;;;;;;;2.92;2.83;;;10.20;99.90;;;;;;6167427;29;20271;-66
2022/11/05 03:37:49;;;;;;;2.65;2.45;;;10.20;99.90;;;;;;6167238;29;20274;-66
2022/11/05 03:40:57;;;;;;;5.70;2.97;;;10.20;99.90;;;;;;6166956;29;20459;-66
2022/11/05 03:44:05;;;;;;;3.15;2.97;;;10.20;99.90;;;;;;6165607;28;20311;-67
2022/11/05 03:47:14;;;;;;;2.92;2.72;;;10.20;99.90;;;;;;6166848;29;20461;-66
2022/11/05 03:50:24;;;;;;;4.45;3.28;;;10.20;99.90;;;;;;6150263;29;20275;-66
2022/11/05 03:53:33;;;;;;;6.78;3.28;;;10.30;99.90;;;;;;6166557;29;20392;-66
2022/11/05 03:56:43;;;;;;;5.88;2.83;;;10.20;99.90;;;;;;6166926;29;20270;-67
2022/11/05 03:59:50;;;;;;;3.10;2.67;;;10.30;99.90;;;;;;6166485;29;20272;-67
2022/11/05 04:02:55;;;;;;;6.20;3.22;;;10.30;99.90;;;;;;6166888;29;20282;-67
2022/11/05 04:26:26;;;;;;;3.67;3.10;;;10.20;99.90;;;;;;6102070;29;20433;-66
2022/11/05 04:33:01;;;;;;;4.75;2.72;;;10.30;99.90;;;;;;6118455;29;20296;-67
2022/11/05 04:36:07;;;;;;;2.95;2.60;;;10.20;99.90;;;;;;6118272;29;20276;-66
2022/11/05 04:39:12;;;;;;;5.07;2.70;;;10.30;99.90;;;;;;6118585;29;20268;-66
2022/11/05 04:42:19;;;;;;;4.53;2.78;;;10.30;99.90;;;;;;6118178;29;20275;-66
2022/11/05 04:45:24;;;;;;;5.35;2.55;;;10.30;99.90;;;;;;6118340;29;20268;-66
2022/11/05 04:48:29;;;;;;;2.80;2.70;;;10.30;99.90;;;;;;6118355;29;20280;-67
2022/11/05 04:51:34;;;;;;;3.88;2.72;;;10.20;99.90;;;;;;6117655;29;20272;-67
2022/11/05 04:54:39;;;;;;;3.60;2.58;;;10.30;99.90;;;;;;6117733;29;20583;-67
2022/11/05 04:57:48;;;;;;;2.97;2.42;;;10.30;99.90;;;;;;6117751;29;20268;-66
2022/11/05 05:00:53;;;;;;;3.22;2.50;;;10.20;99.90;;;;;;6117527;29;20277;-67
2022/11/05 05:03:57;;;;;;;5.82;2.45;;;10.30;99.90;;;;;;6117319;29;20562;-67
2022/11/05 05:07:02;;;;;;;2.80;2.60;;;10.20;99.90;;;;;;6117290;29;20304;-67
2022/11/05 05:10:09;;;;;;;5.10;2.60;;;10.30;99.90;;;;;;6117513;29;20272;-67
2022/11/05 05:13:15;;;;;;;2.60;2.40;;;10.20;99.90;;;;;;6119012;29;20629;-67
2022/11/05 05:16:22;;;;;;;2.22;2.20;;;10.20;99.90;;;;;;6140808;29;20267;-67
2022/11/05 05:19:27;;;;;;;4.00;2.60;;;10.30;99.90;;;;;;6141488;29;20273;-67
2022/11/05 05:22:31;;;;;;;2.60;2.38;;;10.30;99.90;;;;;;6140932;29;20278;-68
2022/11/05 05:25:35;;;;;;;2.67;2.55;;;10.30;99.90;;;;;;6140693;29;20271;-67
2022/11/05 05:28:43;;;;;;;4.55;2.80;;;10.30;99.90;;;;;;6140511;29;20268;-67
2022/11/05 05:31:47;;;;;;;2.72;2.45;;;10.30;99.90;;;;;;6140308;29;20271;-67
2022/11/05 05:34:53;;;;;;;2.53;2.42;;;10.30;99.90;;;;;;6141181;29;20291;-67
2022/11/05 05:37:57;;;;;;;3.10;2.78;;;10.30;99.90;;;;;;6140371;29;20302;-67
2022/11/05 05:41:02;;;;;;;3.08;2.78;;;10.30;99.90;;;;;;6140525;29;20268;-67
2022/11/05 05:44:09;;;;;;;3.60;2.60;;;10.30;99.90;;;;;;6140072;29;20292;-67
2022/11/05 05:47:14;;;;;;;3.28;2.72;;;10.30;99.90;;;;;;6140170;29;20566;-67
2022/11/05 05:50:19;;;;;;;3.28;2.53;;;10.30;99.90;;;;;;6140399;29;20300;-66
2022/11/05 05:53:29;;;;;;;3.35;2.20;;;10.30;99.90;;;;;;6140399;29;20286;-66
2022/11/05 05:56:33;;;;;;;2.75;2.53;;;10.30;99.90;;;;;;6140174;29;20275;-66
2022/11/05 05:59:40;;;;;;;2.70;2.50;;;10.30;99.90;;;;;;6140049;29;20272;-67
2022/11/05 06:02:44;;;;;;;2.67;2.45;;;10.30;99.90;;;;;;6140608;29;20279;-67
2022/11/05 06:05:50;;;;;;;2.83;2.70;;;10.20;99.90;;;;;;6139876;29;20299;-67
2022/11/05 06:08:56;;;;;;;2.67;2.58;;;10.30;99.90;;;;;;6140461;29;20267;-67
2022/11/05 06:12:01;;;;;;;2.50;2.40;;;10.20;99.90;;;;;;6140148;29;20271;-69
2022/11/05 06:15:08;;;;;;;2.50;2.35;;;10.20;99.90;;;;;;6140300;29;20287;-67
2022/11/05 06:18:14;;;;;;;4.32;2.63;;;10.20;99.90;;;;;;6123080;29;20267;-67
2022/11/05 06:21:19;;;;;;;2.83;2.63;;;10.20;99.90;;;;;;6140139;29;20271;-67
2022/11/05 06:24:24;;;;;;;3.35;3.15;;;10.20;99.90;;;;;;6140370;29;20583;-67
2022/11/05 06:27:29;;;;;;;2.80;2.70;;;10.20;99.90;;;;;;6139669;29;20267;-66
2022/11/05 06:30:35;;;;;;;2.53;2.38;;;10.20;99.90;;;;;;6140344;29;20269;-66
2022/11/05 06:33:40;;;;;;;2.90;2.70;;;10.20;99.90;;;;;;6139731;29;20287;-66
2022/11/05 06:36:45;;;;;;;3.63;3.20;;;10.20;99.90;;;;;;6139954;29;20272;-66
2022/11/05 06:39:50;;;;;;;3.13;2.60;;;10.20;99.90;;;;;;6140267;29;20275;-66
2022/11/05 06:42:55;;;;;;;3.22;2.67;;;10.20;99.90;;;;;;6139974;29;20267;-66
2022/11/05 06:46:03;;;;;;;4.13;2.53;;;10.30;99.90;;;;;;6139904;29;20460;-67
2022/11/05 06:49:08;;;;;;;3.20;2.42;;;10.30;99.90;;;;;;6139835;29;20288;-68
2022/11/05 06:52:14;;;;;;;3.40;2.72;;;10.30;99.90;;;;;;6140009;29;20275;-67
2022/11/05 06:55:19;;;;;;;3.35;2.67;;;10.30;99.90;;;;;;6139635;29;20607;-67
2022/11/05 06:58:23;;;;;;;3.20;2.88;;;10.20;99.90;;;;;;6139535;29;20267;-66
2022/11/05 07:01:30;;;;;;;2.42;2.35;;;10.20;99.90;;;;;;6139739;29;20272;-67
2022/11/05 07:04:36;;;;;;;2.95;2.47;;;10.30;99.90;;;;;;6139168;29;20279;-67
2022/11/05 07:07:42;;;;;;;6.45;2.63;;;10.20;99.90;;;;;;6139871;29;20271;-67
2022/11/05 07:10:46;;;;;;;2.95;2.83;;;10.20;99.90;;;;;;6139627;29;20275;-67
2022/11/05 07:13:51;;;;;;;2.60;2.50;;;10.20;99.90;;;;;;6146548;29;20287;-67
2022/11/05 07:16:58;;;;;;;2.22;2.20;;;10.20;99.90;;;;;;6163338;29;20270;-67
2022/11/05 07:20:04;;;;;;;4.20;2.28;;;10.20;99.90;;;;;;6167086;29;20433;-67
2022/11/05 07:23:12;;;;;;;2.70;2.60;;;10.20;99.90;;;;;;6151132;29;20286;-67
2022/11/05 07:26:18;;;;;;;3.80;2.50;;;10.20;99.90;;;;;;6167546;29;20280;-66
2022/11/05 07:29:22;;;;;;;3.55;2.40;;;10.30;99.90;;;;;;6167099;29;20476;-67
2022/11/05 07:32:29;;;;;;;2.35;2.30;;;10.20;99.90;;;;;;6150544;29;20451;-67
2022/11/05 07:35:33;;;;;;;2.47;2.25;;;10.20;99.90;;;;;;6167039;29;20290;-68
2022/11/05 07:38:38;;;;;;;2.53;2.30;;;10.20;99.90;;;;;;6166703;29;20266;-67
2022/11/05 07:41:43;;;;;;;4.45;2.63;;;10.20;99.90;;;;;;6166742;29;20266;-67
2022/11/05 07:44:48;;;;;;;2.30;2.20;;;10.20;99.90;;;;;;6166705;29;20270;-67
2022/11/05 07:47:57;;;;;;;2.30;2.20;;;10.20;99.90;;;;;;6166546;29;20275;-66
2022/11/05 07:51:02;;;;;;;3.92;2.40;;;10.20;99.90;;;;;;6166856;29;20294;-67
2022/11/05 07:54:07;;;;;;;2.50;2.40;;;10.20;99.90;;;;;;6167028;29;20294;-66
2022/11/05 07:57:11;;;;;;;2.20;2.10;;;10.10;99.90;;;;;;6166790;29;20452;-67
2022/11/05 08:00:20;;;;;;;3.20;2.35;;;10.20;99.90;;;;;;6166338;29;20270;-66
2022/11/05 08:03:26;;;;;;;2.53;2.35;;;10.20;99.90;;;;;;6166407;29;20266;-66
2022/11/05 08:06:32;;;;;;;2.13;2.03;;;10.20;99.90;;;;;;6165845;29;20306;-66
2022/11/05 08:09:36;;;;;;;3.85;2.20;;;10.30;99.90;;;;;;6166384;29;20270;-67
2022/11/05 08:12:42;;;;;;;2.50;2.40;;;10.30;99.90;;;;;;6166765;29;20270;-67
2022/11/05 08:15:47;;;;;;;2.33;2.30;;;10.20;99.90;;;;;;6143208;29;20287;-66
2022/11/05 08:18:53;;;;;;;2.15;2.15;;;10.20;99.90;;;;;;6142540;29;20280;-67
2022/11/05 08:21:58;;;;;;;2.53;2.40;;;10.20;99.90;;;;;;6141994;29;20267;-67
2022/11/05 08:25:03;;;;;;;2.35;2.15;;;10.20;99.90;;;;;;6142539;29;20279;-66
2022/11/05 08:28:14;;;;;;;3.33;2.25;;;10.20;99.90;;;;;;6142190;29;20271;-67
2022/11/05 08:31:18;;;;;;;4.07;2.22;;;10.20;99.90;;;;;;6141151;29;20575;-67
2022/11/05 08:34:25;;;;;;;4.93;2.47;;;10.20;99.90;;;;;;6141542;29;20306;-67
2022/11/05 08:37:29;;;;;;;2.28;2.08;;;10.10;99.90;;;;;;6141750;29;20267;-67
2022/11/05 08:40:36;;;;;;;2.65;2.08;;;10.20;99.90;;;;;;6142005;29;20267;-69
2022/11/05 08:43:41;;;;;;;2.50;2.38;;;10.20;99.90;;;;;;6141837;29;20271;-67
2022/11/05 08:46:46;;;;;;;2.20;2.10;;;10.20;99.90;;;;;;6141392;29;20279;-67
2022/11/05 08:49:53;;;;;;;5.68;2.55;;;10.20;99.90;;;;;;6141545;29;20279;-66
2022/11/05 08:52:58;;;;;;;2.47;2.30;;;10.20;99.90;;;;;;6142095;29;20267;-67
2022/11/05 08:56:03;;;;;;;3.03;2.55;;;10.20;99.90;;;;;;6141402;29;20480;-67
2022/11/05 08:59:08;;;;;;;4.60;2.20;;;10.20;99.90;;;;;;6141885;29;20546;-67
2022/11/05 09:02:13;;;;;;;2.60;2.50;;;10.30;99.90;;;;;;6141543;29;20271;-67
2022/11/05 09:05:20;;;;;;;3.13;2.78;;;10.20;99.90;;;;;;6140852;29;20299;-67
2022/11/05 09:08:24;;;;;;;2.53;2.40;;;10.20;99.90;;;;;;6140946;29;20437;-67
2022/11/05 09:11:29;;;;;;;2.72;2.50;;;10.20;99.90;;;;;;6141129;29;20447;-67
2022/11/05 09:14:54;;;;;;;2.58;2.42;;;10.20;99.90;;;;;;6156865;29;20282;-67
2022/11/05 09:17:59;;;;;;;3.33;2.60;;;10.20;99.90;;;;;;6165076;29;20274;-66
2022/11/05 09:21:05;;;;;;;2.80;2.60;;;10.30;99.90;;;;;;6164678;29;20565;-66
2022/11/05 09:24:11;;;;;;;4.53;2.88;;;10.30;99.90;;;;;;6164539;29;20451;-67
2022/11/05 09:27:16;;;;;;;3.97;3.15;;;10.30;99.90;;;;;;6164139;29;20554;-67
2022/11/05 09:30:21;;;;;;;3.08;2.88;;;10.20;99.90;;;;;;6164616;29;20551;-67
2022/11/05 09:33:26;;;;;;;3.05;2.83;;;10.20;99.90;;;;;;6164388;29;20270;-67
2022/11/05 09:36:33;;;;;;;5.25;3.53;;;10.20;99.90;;;;;;6163913;29;20597;-67
2022/11/05 09:39:37;;;;;;;4.45;3.35;;;10.30;99.90;;;;;;6164711;29;20270;-68
2022/11/05 09:42:45;;;;;;;3.42;3.13;;;10.30;99.90;;;;;;6163611;28;20271;-68
2022/11/05 09:45:53;;;;;;;4.10;3.67;;;10.20;99.90;;;;;;6164454;29;20269;-67
2022/11/05 09:49:03;;;;;;;3.85;3.53;;;10.10;99.90;;;;;;6164283;29;20270;-66
2022/11/05 09:52:14;;;;;;;3.83;3.55;;;10.20;99.90;;;;;;6147618;29;20274;-66
2022/11/05 09:55:23;;;;;;;4.63;3.58;;;10.10;99.90;;;;;;6164226;29;20606;-67
2022/11/05 09:58:37;;;;;;;4.10;3.80;;;10.10;99.90;;;;;;6163517;29;20274;-66
2022/11/05 10:01:44;;;;;;;4.13;3.80;;;10.10;99.90;;;;;;6163796;29;20570;-67
2022/11/05 10:04:57;;;;;;;4.35;4.05;;;10.00;99.90;;;;;;6163616;29;20271;-67
2022/11/05 10:08:10;;;;;;;4.88;3.85;;;9.90;99.90;;;;;;6164068;29;20406;-67
2022/11/05 10:11:19;;;;;;;4.72;4.28;;;9.90;99.90;;;;;;6163624;29;20278;-67
2022/11/05 10:14:28;;;;;;;5.18;4.32;;;9.90;99.90;;;;;;6151692;29;20263;-67
2022/11/05 10:17:34;;;;;;;4.57;4.15;;;9.80;99.90;;;;;;6140023;29;20295;-66
2022/11/05 10:20:43;;;;;;;4.72;4.32;;;9.80;99.90;;;;;;6139848;29;20275;-68
2022/11/05 10:23:50;;;;;;;8.05;4.65;;;9.90;99.90;;;;;;6140228;29;20275;-66
2022/11/05 10:26:55;;;;;;;5.13;4.63;;;10.00;99.90;;;;;;6140164;29;20563;-66
2022/11/05 10:30:00;;;;;;;5.00;4.15;;;9.90;99.90;;;;;;6139751;29;20275;-66
2022/11/05 10:33:06;;;;;;;4.82;4.45;;;9.90;99.90;;;;;;6139631;29;20274;-66
2022/11/05 10:36:17;;;;;;;4.53;4.03;;;9.90;99.90;;;;;;6139864;29;20290;-66
2022/11/05 10:39:26;;;;;;;3.78;3.65;;;9.90;99.90;;;;;;6139997;29;20275;-66
2022/11/05 10:42:45;;;;;;;6.80;3.92;;;9.90;99.90;;;;;;6123110;29;20267;-66
2022/11/05 10:45:57;;;;;;;4.63;3.90;;;9.90;99.90;;;;;;6139784;29;20279;-66
2022/11/05 10:49:17;;;;;;;3.70;3.47;;;9.90;99.90;;;;;;6139710;29;20271;-66
2022/11/05 10:52:25;;;;;;;3.15;2.92;;;9.90;99.90;;;;;;6140111;29;20271;-66
2022/11/05 10:55:34;;;;;;;4.88;3.80;;;9.90;99.90;;;;;;6144382;29;20275;-67
2022/11/05 10:58:55;;;;;;;3.33;3.00;;;9.70;99.90;;;;;;6144122;29;20275;-67
2022/11/05 11:02:03;;;;;;;3.25;3.10;;;9.80;99.90;;;;;;6144354;29;20569;-67
2022/11/05 11:05:09;;;;;;;3.25;3.03;;;9.80;99.90;;;;;;6143409;29;20299;-67
2022/11/05 11:08:23;;;;;;;3.50;3.20;;;9.70;99.90;;;;;;6144134;29;20271;-67
2022/11/05 11:11:34;;;;;;;3.28;2.97;;;9.70;99.90;;;;;;6143905;29;20280;-67
2022/11/05 11:14:39;;;;;;;3.22;3.00;;;9.80;99.90;;;;;;6157551;29;20266;-67
2022/11/05 11:17:44;;;;;;;3.58;3.22;;;9.70;99.90;;;;;;6167394;29;20478;-67
2022/11/05 11:20:48;;;;;;;3.20;3.00;;;9.70;99.90;;;;;;6167721;29;20290;-67
2022/11/05 11:23:58;;;;;;;3.30;3.10;;;9.80;99.90;;;;;;6150547;29;20266;-66
2022/11/05 11:27:10;;;;;;;3.38;3.22;;;9.70;99.90;;;;;;6167457;29;20279;-66
2022/11/05 11:30:19;;;;;;;3.95;3.05;;;9.70;99.90;;;;;;6166894;29;20276;-66
2022/11/05 11:33:27;;;;;;;5.78;3.65;;;9.70;99.90;;;;;;6167529;29;20656;-66
2022/11/05 11:36:35;;;;;;;3.42;3.17;;;9.70;99.90;;;;;;6166776;29;20291;-66
2022/11/05 11:39:40;;;;;;;3.90;3.63;;;9.70;99.90;;;;;;6167477;29;20426;-67
2022/11/05 11:42:48;;;;;;;3.25;3.05;;;9.70;99.90;;;;;;6166684;29;20270;-67
2022/11/05 11:45:56;;;;;;;3.58;3.15;;;9.70;99.90;;;;;;6167230;29;20448;-67
2022/11/05 11:49:33;;;;;;;3.10;2.90;;;9.70;99.90;;;;;;6167213;29;20267;-66
2022/11/05 11:52:37;;;;;;;3.20;3.10;;;9.70;99.90;;;;;;6167150;29;20278;-68
2022/11/05 11:56:05;;;;;;;3.05;2.85;;;9.70;99.90;;;;;;6166616;29;20408;-66
2022/11/05 11:59:22;;;;;;;2.60;2.50;;;9.70;99.90;;;;;;6166758;29;20278;-67
2022/11/05 12:03:17;;;;;;;2.60;2.50;;;9.80;99.90;;;;;;6166273;29;20459;-67
2022/11/05 12:06:29;;;;;;;2.67;2.47;;;9.80;99.90;;;;;;6165375;29;20294;-67
2022/11/05 12:09:51;;;;;;;2.50;2.40;;;9.80;99.90;;;;;;6166547;29;20275;-67
2022/11/05 12:13:20;;;;;;;2.90;2.80;;;9.70;99.90;;;;;;6166269;29;20274;-68
2022/11/05 12:17:10;;;;;;;2.17;2.08;;;9.70;99.90;;;;;;6142243;29;20266;-67
2022/11/05 12:20:52;;;;;;;2.30;2.13;;;9.70;99.90;;;;;;6141971;29;20400;-66
2022/11/05 12:24:20;;;;;;;2.80;2.70;;;9.70;99.90;;;;;;6141964;29;20267;-67
2022/11/05 12:27:46;;;;;;;2.92;2.42;;;9.70;99.90;;;;;;6142934;29;20275;-67
2022/11/05 12:30:56;;;;;;;2.08;1.95;;;9.70;99.90;;;;;;6142979;29;20271;-67
2022/11/05 12:34:17;;;;;;;2.67;2.00;;;9.80;99.90;;;;;;6142199;29;20280;-67
2022/11/05 12:37:32;;;;;;;2.33;1.95;;;9.70;99.90;;;;;;6141412;29;20291;-66
2022/11/05 12:40:51;;;;;;;1.90;1.80;;;9.80;99.90;;;;;;6141631;29;20571;-66
2022/11/05 12:44:17;;;;;;;1.80;1.75;;;9.90;99.90;;;;;;6141414;29;20440;-68
2022/11/05 12:47:47;;;;;;;2.88;1.70;;;9.90;99.90;;;;;;6141906;29;20608;-67
2022/11/05 12:50:55;;;;;;;1.70;1.60;;;9.70;99.90;;;;;;6141372;29;20275;-67
2022/11/05 12:54:15;;;;;;;1.75;1.70;;;9.80;99.90;;;;;;6141529;29;20558;-67
2022/11/05 12:57:23;;;;;;;1.88;1.40;;;9.80;99.90;;;;;;6141354;29;20295;-66
2022/11/05 13:00:29;;;;;;;1.80;1.60;;;9.80;99.90;;;;;;6141153;29;20431;-67
2022/11/05 13:03:41;;;;;;;1.83;1.75;;;9.90;99.90;;;;;;6141403;29;20271;-66
2022/11/05 13:06:50;;;;;;;1.92;1.70;;;9.90;99.90;;;;;;6140503;29;20303;-67
2022/11/05 13:09:59;;;;;;;2.10;1.95;;;9.90;99.90;;;;;;6141285;29;20275;-67
2022/11/05 13:13:12;;;;;;;3.22;1.92;;;9.90;99.90;;;;;;6141833;29;20559;-68
2022/11/05 13:16:24;;;;;;;1.70;1.60;;;9.90;99.90;;;;;;6164433;28;20266;-68
2022/11/05 13:19:34;;;;;;;1.60;1.60;;;9.80;99.90;;;;;;6164767;29;20294;-67
2022/11/05 13:22:42;;;;;;;2.28;1.38;;;9.80;99.90;;;;;;6164262;29;20274;-67
2022/11/05 13:25:51;;;;;;;2.20;1.58;;;9.80;99.90;;;;;;6164956;29;20274;-67
2022/11/05 13:29:05;;;;;;;1.98;1.70;;;9.70;99.90;;;;;;6164288;29;20270;-66
2022/11/05 13:32:25;;;;;;;1.83;1.48;;;9.70;99.90;;;;;;6164917;29;20278;-68
2022/11/05 13:35:35;;;;;;;2.45;1.38;;;9.70;99.90;;;;;;6164397;29;20270;-68
2022/11/05 13:39:02;;;;;;;1.85;1.85;;;9.70;99.90;;;;;;6164476;29;20297;-67
2022/11/05 13:42:41;;;;;;;2.25;1.70;;;9.70;99.90;;;;;;6164174;29;20266;-67
2022/11/05 13:46:13;;;;;;;1.98;1.60;;;9.60;99.90;;;;;;6164512;29;20271;-67
2022/11/05 13:49:55;;;;;;;1.45;1.42;;;9.70;99.90;;;;;;6164058;29;20290;-66
2022/11/05 13:53:47;;;;;;;3.70;1.60;;;9.60;99.90;;;;;;6152988;29;20289;-67
2022/11/05 13:57:09;;;;;;;2.80;1.60;;;9.70;99.90;;;;;;6150332;29;20270;-67
2022/11/05 14:00:18;;;;;;;3.00;1.63;;;9.60;99.90;;;;;;6164326;29;20546;-67
2022/11/05 14:03:24;;;;;;;1.60;1.50;;;9.70;99.90;;;;;;6164227;29;20270;-66
2022/11/05 14:06:33;;;;;;;1.67;1.40;;;9.80;99.90;;;;;;6163355;29;20307;-66
2022/11/05 14:09:38;;;;;;;1.70;1.60;;;9.80;99.90;;;;;;6163770;29;20479;-68
2022/11/05 14:12:48;;;;;;;1.92;1.73;;;9.80;99.90;;;;;;6163669;29;20582;-67
2022/11/05 14:16:02;;;;;;;1.85;1.70;;;9.80;99.90;;;;;;6140140;29;20267;-67
2022/11/05 14:19:37;;;;;;;2.00;1.80;;;9.70;99.90;;;;;;6140234;29;20342;-66
2022/11/05 14:22:42;;;;;;;1.65;1.45;;;9.70;99.90;;;;;;6124481;29;20551;-68
2022/11/05 14:25:55;;;;;;;1.67;1.65;;;9.70;99.90;;;;;;6140131;29;20284;-66
2022/11/05 14:29:23;;;;;;;1.98;1.77;;;9.70;99.90;;;;;;6143560;29;20590;-67
2022/11/05 14:32:44;;;;;;;1.95;1.85;;;9.80;99.90;;;;;;6144753;29;20561;-67
2022/11/05 14:35:50;;;;;;;18.92;2.03;;;9.80;99.90;;;;;;6145181;29;20267;-67
2022/11/05 14:38:56;;;;;;;2.20;2.10;;;9.80;99.90;;;;;;6144412;29;20425;-67
2022/11/05 14:42:15;;;;;;;2.13;2.10;;;9.80;99.90;;;;;;6144574;29;20280;-67
2022/11/05 14:45:30;;;;;;;2.22;2.13;;;9.80;99.90;;;;;;6144872;29;20263;-67
2022/11/05 14:48:39;;;;;;;2.20;2.10;;;9.80;99.90;;;;;;6144618;29;20449;-67
2022/11/05 14:51:48;;;;;;;1.92;1.92;;;9.80;99.90;;;;;;6144219;29;20283;-66
2022/11/05 14:54:54;;;;;;;1.98;1.98;;;9.80;99.90;;;;;;6144017;29;20559;-66
2022/11/05 14:58:32;;;;;;;2.00;1.90;;;9.80;99.90;;;;;;6144370;29;20483;-66
2022/11/05 15:01:56;;;;;;;2.30;2.20;;;9.90;99.90;;;;;;6143992;29;20346;-66
2022/11/05 15:05:39;;;;;;;2.20;2.20;;;9.90;99.90;;;;;;6144105;29;20271;-66
2022/11/05 15:09:05;;;;;;;2.95;2.40;;;9.90;99.90;;;;;;6133841;29;20275;-68
2022/11/05 15:12:18;;;;;;;2.00;2.00;;;9.80;99.90;;;;;;6144200;29;20275;-67
2022/11/05 15:15:26;;;;;;;2.53;2.40;;;9.90;99.90;;;;;;6162965;29;20268;-67
2022/11/05 15:18:43;;;;;;;3.10;2.90;;;9.90;99.90;;;;;;6167651;29;20290;-67
2022/11/05 15:21:48;;;;;;;2.78;2.75;;;10.00;99.90;;;;;;6167118;29;20267;-67
2022/11/05 15:24:55;;;;;;;3.13;2.80;;;9.90;99.90;;;;;;6167173;29;20275;-68
2022/11/05 15:28:06;;;;;;;2.83;2.72;;;10.00;99.90;;;;;;6167098;29;20546;-67
2022/11/05 15:31:30;;;;;;;3.80;3.50;;;10.00;99.90;;;;;;6167524;29;20279;-66
2022/11/05 15:34:35;;;;;;;3.72;3.45;;;10.00;99.90;;;;;;6167376;29;20563;-66
2022/11/05 15:37:47;;;;;;;3.53;3.20;;;10.00;99.90;;;;;;6167266;29;20473;-66
2022/11/05 15:41:04;;;;;;;3.60;3.30;;;10.00;99.90;;;;;;6165817;28;20366;-67
2022/11/05 15:44:25;;;;;;;4.15;3.92;;;10.00;99.90;;;;;;6167051;29;20288;-67
2022/11/05 15:47:33;;;;;;;5.97;5.20;;;10.00;99.90;;;;;;6166681;29;20275;-66
2022/11/05 15:50:37;;;;;;;5.25;4.95;;;10.10;99.90;;;;;;6166951;29;20270;-67
2022/11/05 15:53:57;;;;;;;4.78;4.53;;;10.20;99.90;;;;;;6167000;29;20270;-67
2022/11/05 15:57:27;;;;;;;4.40;4.00;;;10.10;99.90;;;;;;6166109;29;20279;-67
2022/11/05 16:00:36;;;;;;;4.78;4.10;;;10.20;99.90;;;;;;6166368;29;20290;-67
2022/11/05 16:03:42;;;;;;;4.38;4.07;;;10.20;99.90;;;;;;6166891;29;20357;-67
2022/11/05 16:06:49;;;;;;;4.55;4.15;;;10.20;99.90;;;;;;6152419;29;20304;-68
2022/11/05 16:09:56;;;;;;;4.13;3.85;;;10.20;99.90;;;;;;6142995;29;20280;-68
2022/11/05 16:13:36;;;;;;;4.10;3.85;;;10.20;99.90;;;;;;6141623;29;20272;-67
2022/11/05 16:16:41;;;;;;;4.30;3.10;;;10.20;99.90;;;;;;6119024;29;20272;-66
2022/11/05 16:19:47;;;;;;;3.53;3.33;;;10.20;99.90;;;;;;6118689;29;20291;-68
2022/11/05 16:22:54;;;;;;;3.20;3.00;;;10.10;99.90;;;;;;6118848;29;20451;-67
2022/11/05 16:25:59;;;;;;;3.33;3.03;;;10.10;99.90;;;;;;6118267;29;20276;-66
2022/11/05 16:29:18;;;;;;;2.95;2.85;;;10.10;99.90;;;;;;6118017;29;20275;-66
2022/11/05 16:32:26;;;;;;;3.00;2.80;;;10.10;99.90;;;;;;6118176;29;20268;-67
2022/11/05 16:35:39;;;;;;;2.88;2.78;;;10.10;99.90;;;;;;6118497;29;20453;-67
2022/11/05 16:38:45;;;;;;;3.28;3.08;;;10.10;99.90;;;;;;6118530;29;20563;-67
2022/11/05 16:41:50;;;;;;;2.95;2.85;;;10.00;99.90;;;;;;6118525;29;20276;-66
2022/11/05 16:44:56;;;;;;;3.22;3.03;;;10.00;99.90;;;;;;6117816;29;20702;-66
2022/11/05 16:48:01;;;;;;;3.08;2.90;;;10.00;99.90;;;;;;6118065;29;20276;-66
2022/11/05 16:51:06;;;;;;;2.75;2.75;;;10.00;99.90;;;;;;6117913;29;20456;-66
2022/11/05 16:54:11;;;;;;;3.35;3.22;;;9.90;99.90;;;;;;6117645;29;20466;-67
2022/11/05 16:57:30;;;;;;;3.70;3.08;;;10.00;99.90;;;;;;6117847;29;20272;-67
2022/11/05 17:00:36;;;;;;;3.20;3.10;;;9.90;99.90;;;;;;6117824;29;20295;-68
2022/11/05 17:03:41;;;;;;;3.55;3.38;;;9.80;99.90;;;;;;6117331;29;20267;-67
2022/11/05 17:06:47;;;;;;;3.15;2.90;;;9.80;99.90;;;;;;6130773;29;20303;-68
2022/11/05 17:09:52;;;;;;;3.50;3.30;;;9.80;99.90;;;;;;6140875;29;20283;-68
2022/11/05 17:12:57;;;;;;;3.33;3.13;;;9.80;99.90;;;;;;6141222;29;20275;-68
2022/11/05 17:16:04;;;;;;;3.25;3.15;;;9.70;99.90;;;;;;6141670;29;20437;-67
2022/11/05 17:19:14;;;;;;;5.53;3.70;;;9.70;99.90;;;;;;6140752;29;20271;-68
2022/11/05 17:22:19;;;;;;;3.47;3.33;;;9.70;99.90;;;;;;6139948;29;20271;-66
2022/11/05 17:25:24;;;;;;;4.10;3.83;;;9.80;99.90;;;;;;6140948;29;20272;-66